createdAt,value
2017-07-20T00:00:28.777Z,22.14
2017-07-20T00:01:29.072Z,22.1
2017-07-20T00:02:28.764Z,22.2
2017-07-20T00:03:29.055Z,22.24
2017-07-20T00:04:29.039Z,22.2
2017-07-20T00:05:28.725Z,22.21
2017-07-20T00:06:29.013Z,22.18
2017-07-20T00:07:28.996Z,22.25
2017-07-20T00:08:28.996Z,22.21
2017-07-20T00:09:28.973Z,22.18
2017-07-20T00:10:28.965Z,22.2
2017-07-20T00:11:28.641Z,22.2
2017-07-20T00:12:28.943Z,22.33
2017-07-20T00:13:28.928Z,22.29
2017-07-20T00:14:28.916Z,22.27
2017-07-20T00:15:28.921Z,22.22
2017-07-20T00:16:28.598Z,22.22
2017-07-20T00:17:28.868Z,22.06
2017-07-20T00:18:28.557Z,22.1
2017-07-20T00:19:28.847Z,22.14
2017-07-20T00:20:28.868Z,22.12
2017-07-20T00:21:28.814Z,22.1
2017-07-20T00:22:28.804Z,22.2
2017-07-20T00:23:28.788Z,22.15
2017-07-20T00:24:28.814Z,22.18
2017-07-20T00:25:28.768Z,22.14
2017-07-20T00:26:28.777Z,22.14
2017-07-20T00:27:28.749Z,22.05
2017-07-20T00:28:28.426Z,22
2017-07-20T00:29:28.735Z,22.06
2017-07-20T00:30:28.416Z,22
2017-07-20T00:31:28.084Z,21.96
2017-07-20T00:32:28.696Z,22.03
2017-07-20T00:33:28.695Z,21.97
2017-07-20T00:34:28.053Z,21.99
2017-07-20T00:35:28.655Z,22.08
2017-07-20T00:36:28.329Z,22.1
2017-07-20T00:37:28.634Z,22.15
2017-07-20T00:38:28.607Z,22.08
2017-07-20T00:39:28.314Z,22.15
2017-07-20T00:40:28.631Z,22.1
2017-07-20T00:41:28.576Z,22.12
2017-07-20T00:42:28.597Z,22.2
2017-07-20T00:43:28.256Z,22.12
2017-07-20T00:44:28.318Z,21.96
2017-07-20T00:45:28.255Z,22.02
2017-07-20T00:46:28.547Z,22.06
2017-07-20T00:47:28.525Z,22.1
2017-07-20T00:48:27.885Z,22.11
2017-07-20T00:49:28.527Z,22.06
2017-07-20T00:50:28.472Z,22
2017-07-20T00:51:28.458Z,21.92
2017-07-20T00:52:27.866Z,22.03
2017-07-20T00:53:28.468Z,21.97
2017-07-20T00:54:28.093Z,21.97
2017-07-20T00:55:28.106Z,21.92
2017-07-20T00:56:28.375Z,22.03
2017-07-20T00:57:28.474Z,22.08
2017-07-20T00:58:28.063Z,22.1
2017-07-20T00:59:28.344Z,22.08
2017-07-20T01:00:27.712Z,21.97
2017-07-20T01:01:28.344Z,22.12
2017-07-20T01:02:27.994Z,22.15
2017-07-20T01:03:28.290Z,22.11
2017-07-20T01:04:27.971Z,21.97
2017-07-20T01:05:28.275Z,22.14
2017-07-20T01:06:28.256Z,22.14
2017-07-20T01:07:27.937Z,22.11
2017-07-20T01:08:27.607Z,22.05
2017-07-20T01:09:28.214Z,21.93
2017-07-20T01:10:27.894Z,21.97
2017-07-20T01:11:27.876Z,22
2017-07-20T01:12:27.877Z,22.02
2017-07-20T01:13:27.984Z,22
2017-07-20T01:14:28.155Z,22.08
2017-07-20T01:15:27.830Z,22.03
2017-07-20T01:16:28.126Z,22.05
2017-07-20T01:17:27.898Z,21.97
2017-07-20T01:18:27.815Z,21.97
2017-07-20T01:19:28.085Z,21.99
2017-07-20T01:20:28.086Z,21.97
2017-07-20T01:21:27.764Z,21.77
2017-07-20T01:22:27.748Z,21.71
2017-07-20T01:23:28.055Z,21.7
2017-07-20T01:24:28.026Z,21.58
2017-07-20T01:25:28.025Z,21.56
2017-07-20T01:26:28.005Z,21.58
2017-07-20T01:27:27.696Z,21.34
2017-07-20T01:28:27.973Z,21.26
2017-07-20T01:29:27.964Z,21.34
2017-07-20T01:30:27.675Z,21.37
2017-07-20T01:31:27.635Z,21.34
2017-07-20T01:32:27.635Z,21.26
2017-07-20T01:33:27.913Z,21.46
2017-07-20T01:34:27.680Z,21.37
2017-07-20T01:35:27.576Z,21.26
2017-07-20T01:36:27.605Z,21.28
2017-07-20T01:37:27.863Z,21.31
2017-07-20T01:38:27.853Z,21.26
2017-07-20T01:39:27.534Z,21.21
2017-07-20T01:40:27.816Z,21.17
2017-07-20T01:41:27.493Z,21.25
2017-07-20T01:42:27.795Z,21.33
2017-07-20T01:43:27.773Z,21.36
2017-07-20T01:44:27.834Z,21.39
2017-07-20T01:45:27.444Z,21.46
2017-07-20T01:46:27.774Z,21.28
2017-07-20T01:47:27.810Z,21.28
2017-07-20T01:48:27.725Z,21.34
2017-07-20T01:49:27.705Z,21.26
2017-07-20T01:50:27.704Z,21.34
2017-07-20T01:51:27.666Z,21.41
2017-07-20T01:52:27.676Z,21.21
2017-07-20T01:53:27.653Z,21.11
2017-07-20T01:54:27.341Z,21.07
2017-07-20T01:55:27.323Z,21.25
2017-07-20T01:56:27.313Z,21.24
2017-07-20T01:57:27.273Z,21.24
2017-07-20T01:58:27.573Z,21.37
2017-07-20T01:59:26.945Z,21.41
2017-07-20T02:00:27.244Z,21.36
2017-07-20T02:01:27.636Z,21.26
2017-07-20T02:02:27.533Z,21.33
2017-07-20T02:03:27.572Z,21.31
2017-07-20T02:04:27.502Z,21.24
2017-07-20T02:05:27.544Z,21.09
2017-07-20T02:06:27.153Z,21.18
2017-07-20T02:07:27.162Z,21.13
2017-07-20T02:08:27.444Z,21.04
2017-07-20T02:09:27.433Z,21.24
2017-07-20T02:10:27.403Z,21.29
2017-07-20T02:11:27.094Z,21.31
2017-07-20T02:12:27.103Z,21.26
2017-07-20T02:13:27.395Z,21.31
2017-07-20T02:14:26.745Z,21.36
2017-07-20T02:15:27.345Z,21.4
2017-07-20T02:16:27.346Z,21.44
2017-07-20T02:17:27.333Z,21.26
2017-07-20T02:18:27.003Z,21.18
2017-07-20T02:19:26.993Z,21.19
2017-07-20T02:20:27.294Z,21.07
2017-07-20T02:21:26.970Z,21.15
2017-07-20T02:22:26.670Z,21.21
2017-07-20T02:23:27.243Z,21.21
2017-07-20T02:24:26.614Z,21.13
2017-07-20T02:25:26.903Z,21.22
2017-07-20T02:26:27.214Z,21.19
2017-07-20T02:27:26.884Z,21.25
2017-07-20T02:28:26.874Z,21.11
2017-07-20T02:29:26.843Z,21.09
2017-07-20T02:30:26.855Z,21.17
2017-07-20T02:31:26.834Z,21.17
2017-07-20T02:32:26.814Z,21.22
2017-07-20T02:33:27.124Z,21.21
2017-07-20T02:34:26.805Z,21.13
2017-07-20T02:35:27.083Z,21.07
2017-07-20T02:36:26.464Z,21.17
2017-07-20T02:37:26.748Z,21.1
2017-07-20T02:38:26.745Z,21.26
2017-07-20T02:39:27.055Z,21.21
2017-07-20T02:40:27.027Z,21.29
2017-07-20T02:41:26.705Z,21.28
2017-07-20T02:42:26.443Z,21.31
2017-07-20T02:43:26.678Z,21.24
2017-07-20T02:44:26.974Z,21.24
2017-07-20T02:45:26.657Z,21.22
2017-07-20T02:46:26.647Z,21.09
2017-07-20T02:47:26.616Z,21.17
2017-07-20T02:48:26.927Z,21.15
2017-07-20T02:49:26.615Z,21.24
2017-07-20T02:50:26.884Z,21.22
2017-07-20T02:51:26.565Z,21.18
2017-07-20T02:52:26.567Z,21.03
2017-07-20T02:53:26.845Z,21.24
2017-07-20T02:54:26.584Z,21.26
2017-07-20T02:55:26.827Z,21.25
2017-07-20T02:56:26.495Z,21.31
2017-07-20T02:57:26.491Z,21.26
2017-07-20T02:58:26.183Z,21.31
2017-07-20T02:59:26.774Z,21.15
2017-07-20T03:00:26.772Z,21.13
2017-07-20T03:01:26.766Z,21.13
2017-07-20T03:02:26.727Z,21.06
2017-07-20T03:03:26.784Z,21.1
2017-07-20T03:04:26.476Z,21.04
2017-07-20T03:05:26.781Z,21.04
2017-07-20T03:06:26.396Z,21.09
2017-07-20T03:07:26.654Z,21.1
2017-07-20T03:08:26.653Z,21.07
2017-07-20T03:09:26.664Z,20.94
2017-07-20T03:10:26.427Z,20.89
2017-07-20T03:11:25.994Z,20.89
2017-07-20T03:12:26.300Z,20.84
2017-07-20T03:13:26.645Z,20.94
2017-07-20T03:14:26.571Z,20.99
2017-07-20T03:15:26.827Z,20.82
2017-07-20T03:16:26.806Z,20.82
2017-07-20T03:17:26.483Z,20.84
2017-07-20T03:18:26.915Z,20.73
2017-07-20T03:19:26.477Z,20.64
2017-07-20T03:20:26.405Z,20.73
2017-07-20T03:21:26.737Z,20.79
2017-07-20T03:22:26.422Z,20.78
2017-07-20T03:23:26.382Z,20.78
2017-07-20T03:24:26.687Z,20.7
2017-07-20T03:25:26.093Z,20.82
2017-07-20T03:26:26.639Z,20.95
2017-07-20T03:27:26.645Z,20.95
2017-07-20T03:28:26.628Z,21
2017-07-20T03:29:26.067Z,20.94
2017-07-20T03:30:26.558Z,20.94
2017-07-20T03:31:26.240Z,20.92
2017-07-20T03:32:26.495Z,21
2017-07-20T03:33:26.599Z,21
2017-07-20T03:34:26.450Z,21.07
2017-07-20T03:35:26.196Z,21.1
2017-07-20T03:36:26.153Z,21.1
2017-07-20T03:37:26.184Z,21.07
2017-07-20T03:38:26.548Z,21.06
2017-07-20T03:39:26.559Z,21.06
2017-07-20T03:40:26.437Z,21.06
2017-07-20T03:41:25.905Z,21.11
2017-07-20T03:42:26.184Z,20.95
2017-07-20T03:43:26.182Z,20.97
2017-07-20T03:44:25.844Z,20.87
2017-07-20T03:45:25.846Z,20.95
2017-07-20T03:46:25.537Z,20.63
2017-07-20T03:47:26.126Z,20.54
2017-07-20T03:48:25.802Z,20.43
2017-07-20T03:49:26.149Z,20.54
2017-07-20T03:50:26.073Z,20.52
2017-07-20T03:51:26.065Z,20.49
2017-07-20T03:52:26.075Z,20.47
2017-07-20T03:53:26.034Z,20.29
2017-07-20T03:54:25.722Z,20.33
2017-07-20T03:55:26.017Z,20.23
2017-07-20T03:56:25.991Z,20.26
2017-07-20T03:57:25.984Z,20.2
2017-07-20T03:58:25.374Z,20.28
2017-07-20T03:59:25.954Z,20.23
2017-07-20T04:00:25.950Z,20.29
2017-07-20T04:01:25.936Z,20.18
2017-07-20T04:02:25.915Z,20.43
2017-07-20T04:03:25.596Z,20.49
2017-07-20T04:04:25.574Z,20.4
2017-07-20T04:05:25.245Z,20.36
2017-07-20T04:06:25.564Z,20.33
2017-07-20T04:07:25.555Z,20.41
2017-07-20T04:08:25.836Z,20.43
2017-07-20T04:09:25.808Z,20.36
2017-07-20T04:10:25.803Z,20.33
2017-07-20T04:11:25.792Z,20.4
2017-07-20T04:12:25.794Z,20.38
2017-07-20T04:13:25.453Z,20.31
2017-07-20T04:14:25.762Z,20.31
2017-07-20T04:15:25.427Z,20.33
2017-07-20T04:16:25.413Z,20.29
2017-07-20T04:17:25.403Z,20.35
2017-07-20T04:18:25.373Z,20.2
2017-07-20T04:19:25.675Z,20.29
2017-07-20T04:20:25.365Z,20.31
2017-07-20T04:21:25.652Z,20.36
2017-07-20T04:22:25.344Z,20.29
2017-07-20T04:23:25.612Z,20.31
2017-07-20T04:24:25.294Z,20.44
2017-07-20T04:25:25.286Z,20.47
2017-07-20T04:26:25.272Z,20.4
2017-07-20T04:27:25.574Z,20.48
2017-07-20T04:28:25.255Z,20.52
2017-07-20T04:29:25.225Z,20.57
2017-07-20T04:30:25.218Z,20.72
2017-07-20T04:31:25.213Z,20.7
2017-07-20T04:32:25.508Z,20.64
2017-07-20T04:33:25.505Z,20.69
2017-07-20T04:34:25.165Z,20.66
2017-07-20T04:35:25.144Z,20.67
2017-07-20T04:36:25.454Z,20.74
2017-07-20T04:37:25.470Z,20.87
2017-07-20T04:38:25.407Z,20.87
2017-07-20T04:39:25.413Z,20.82
2017-07-20T04:40:24.772Z,20.87
2017-07-20T04:41:24.765Z,20.88
2017-07-20T04:42:25.043Z,20.99
2017-07-20T04:43:24.734Z,20.95
2017-07-20T04:44:25.020Z,21.03
2017-07-20T04:45:25.315Z,21.04
2017-07-20T04:46:25.315Z,20.99
2017-07-20T04:47:25.027Z,21.06
2017-07-20T04:48:24.974Z,21.04
2017-07-20T04:49:25.023Z,21.07
2017-07-20T04:50:24.945Z,21.09
2017-07-20T04:51:25.280Z,21.03
2017-07-20T04:52:24.915Z,21.07
2017-07-20T04:53:24.903Z,21.07
2017-07-20T04:54:25.192Z,21
2017-07-20T04:55:24.945Z,21.06
2017-07-20T04:56:25.178Z,21.04
2017-07-20T04:57:25.155Z,20.91
2017-07-20T04:58:25.158Z,20.95
2017-07-20T04:59:25.134Z,20.92
2017-07-20T05:00:24.824Z,20.92
2017-07-20T05:01:25.149Z,20.89
2017-07-20T05:02:24.784Z,20.84
2017-07-20T05:03:24.766Z,20.82
2017-07-20T05:04:24.755Z,20.78
2017-07-20T05:05:25.064Z,20.81
2017-07-20T05:06:24.723Z,20.82
2017-07-20T05:07:25.024Z,20.84
2017-07-20T05:08:25.013Z,20.79
2017-07-20T05:09:24.986Z,20.88
2017-07-20T05:10:24.997Z,20.88
2017-07-20T05:11:24.647Z,20.84
2017-07-20T05:12:24.942Z,20.78
2017-07-20T05:13:24.636Z,20.85
2017-07-20T05:14:24.623Z,20.76
2017-07-20T05:15:24.904Z,20.72
2017-07-20T05:16:24.332Z,20.72
2017-07-20T05:17:24.274Z,20.73
2017-07-20T05:18:24.704Z,20.7
2017-07-20T05:19:24.543Z,20.82
2017-07-20T05:20:24.235Z,20.78
2017-07-20T05:21:24.830Z,20.6
2017-07-20T05:22:24.284Z,20.57
2017-07-20T05:23:24.496Z,20.58
2017-07-20T05:24:24.784Z,20.55
2017-07-20T05:25:24.772Z,20.6
2017-07-20T05:26:24.444Z,20.57
2017-07-20T05:27:24.456Z,20.54
2017-07-20T05:28:24.724Z,20.54
2017-07-20T05:29:24.413Z,20.55
2017-07-20T05:30:24.494Z,20.62
2017-07-20T05:31:24.697Z,20.64
2017-07-20T05:32:24.684Z,20.41
2017-07-20T05:33:24.432Z,20.52
2017-07-20T05:34:24.341Z,20.6
2017-07-20T05:35:24.625Z,20.64
2017-07-20T05:36:24.386Z,20.74
2017-07-20T05:37:24.601Z,20.74
2017-07-20T05:38:24.284Z,20.73
2017-07-20T05:39:24.589Z,20.76
2017-07-20T05:40:24.047Z,20.6
2017-07-20T05:41:24.356Z,20.66
2017-07-20T05:42:24.555Z,20.62
2017-07-20T05:43:24.232Z,20.69
2017-07-20T05:44:24.516Z,20.67
2017-07-20T05:45:24.496Z,20.67
2017-07-20T05:46:24.241Z,20.76
2017-07-20T05:47:24.463Z,20.82
2017-07-20T05:48:24.157Z,20.85
2017-07-20T05:49:24.153Z,20.82
2017-07-20T05:50:24.136Z,20.82
2017-07-20T05:51:24.130Z,20.85
2017-07-20T05:52:24.444Z,20.7
2017-07-20T05:53:24.413Z,20.78
2017-07-20T05:54:24.423Z,20.66
2017-07-20T05:55:24.374Z,20.52
2017-07-20T05:56:24.367Z,20.58
2017-07-20T05:57:24.364Z,20.66
2017-07-20T05:58:24.036Z,20.7
2017-07-20T05:59:24.306Z,20.63
2017-07-20T06:00:24.302Z,20.69
2017-07-20T06:01:24.383Z,20.6
2017-07-20T06:02:24.278Z,20.57
2017-07-20T06:03:24.351Z,20.64
2017-07-20T06:04:24.237Z,20.55
2017-07-20T06:05:24.265Z,20.62
2017-07-20T06:06:24.253Z,20.67
2017-07-20T06:07:23.584Z,20.69
2017-07-20T06:08:23.574Z,20.69
2017-07-20T06:09:24.313Z,20.51
2017-07-20T06:10:24.171Z,20.57
2017-07-20T06:11:24.137Z,20.47
2017-07-20T06:12:23.520Z,20.51
2017-07-20T06:13:23.820Z,20.48
2017-07-20T06:14:24.115Z,20.51
2017-07-20T06:15:24.134Z,20.57
2017-07-20T06:16:24.089Z,20.58
2017-07-20T06:17:24.083Z,20.62
2017-07-20T06:18:23.437Z,20.73
2017-07-20T06:19:24.053Z,20.66
2017-07-20T06:20:24.086Z,20.73
2017-07-20T06:21:24.015Z,20.74
2017-07-20T06:22:23.987Z,20.74
2017-07-20T06:23:23.973Z,20.7
2017-07-20T06:24:23.970Z,20.73
2017-07-20T06:25:23.972Z,20.74
2017-07-20T06:26:23.623Z,20.84
2017-07-20T06:27:23.933Z,20.78
2017-07-20T06:28:23.604Z,20.78
2017-07-20T06:29:23.596Z,20.81
2017-07-20T06:30:23.895Z,20.87
2017-07-20T06:31:23.864Z,20.76
2017-07-20T06:32:23.553Z,20.81
2017-07-20T06:33:23.547Z,20.94
2017-07-20T06:34:23.907Z,20.89
2017-07-20T06:35:23.816Z,20.92
2017-07-20T06:36:23.521Z,21.02
2017-07-20T06:37:23.785Z,20.89
2017-07-20T06:38:23.792Z,20.85
2017-07-20T06:39:23.458Z,20.85
2017-07-20T06:40:23.761Z,20.92
2017-07-20T06:41:23.441Z,20.94
2017-07-20T06:42:23.723Z,20.88
2017-07-20T06:43:23.405Z,20.99
2017-07-20T06:44:23.686Z,20.91
2017-07-20T06:45:23.386Z,21
2017-07-20T06:46:23.676Z,21.07
2017-07-20T06:47:23.665Z,21.06
2017-07-20T06:48:23.656Z,20.92
2017-07-20T06:49:23.326Z,20.94
2017-07-20T06:50:23.625Z,21.06
2017-07-20T06:51:23.615Z,21.17
2017-07-20T06:52:23.586Z,21.26
2017-07-20T06:53:23.583Z,21.29
2017-07-20T06:54:23.245Z,21.33
2017-07-20T06:55:23.247Z,21.41
2017-07-20T06:56:22.934Z,21.46
2017-07-20T06:57:23.519Z,21.43
2017-07-20T06:58:23.216Z,21.44
2017-07-20T06:59:23.502Z,21.4
2017-07-20T07:00:23.490Z,21.59
2017-07-20T07:01:23.155Z,21.59
2017-07-20T07:02:23.471Z,21.68
2017-07-20T07:03:23.445Z,21.61
2017-07-20T07:04:23.426Z,21.65
2017-07-20T07:05:23.105Z,21.8
2017-07-20T07:06:23.394Z,21.7
2017-07-20T07:07:23.084Z,21.73
2017-07-20T07:08:23.075Z,21.86
2017-07-20T07:09:23.057Z,21.84
2017-07-20T07:10:23.355Z,21.96
2017-07-20T07:11:23.049Z,21.93
2017-07-20T07:12:23.024Z,21.76
2017-07-20T07:13:22.765Z,21.83
2017-07-20T07:14:23.303Z,21.77
2017-07-20T07:15:22.985Z,21.71
2017-07-20T07:16:23.273Z,21.74
2017-07-20T07:17:23.274Z,21.66
2017-07-20T07:18:22.964Z,21.79
2017-07-20T07:19:23.267Z,21.7
2017-07-20T07:20:23.246Z,21.76
2017-07-20T07:21:22.914Z,21.88
2017-07-20T07:22:22.908Z,21.96
2017-07-20T07:23:22.905Z,21.95
2017-07-20T07:24:23.187Z,21.9
2017-07-20T07:25:23.284Z,21.95
2017-07-20T07:26:23.166Z,22.06
2017-07-20T07:27:23.216Z,22.03
2017-07-20T07:28:22.844Z,22.12
2017-07-20T07:29:23.226Z,22.08
2017-07-20T07:30:22.804Z,22.05
2017-07-20T07:31:22.581Z,22
2017-07-20T07:32:23.086Z,21.95
2017-07-20T07:33:23.113Z,21.88
2017-07-20T07:34:22.785Z,21.95
2017-07-20T07:35:23.077Z,21.97
2017-07-20T07:36:23.076Z,21.95
2017-07-20T07:37:22.765Z,21.88
2017-07-20T07:38:22.745Z,21.83
2017-07-20T07:39:23.076Z,21.83
2017-07-20T07:40:22.694Z,21.86
2017-07-20T07:41:22.678Z,21.79
2017-07-20T07:42:22.971Z,21.76
2017-07-20T07:43:22.945Z,21.86
2017-07-20T07:44:22.345Z,21.81
2017-07-20T07:45:22.318Z,21.62
2017-07-20T07:46:22.601Z,21.73
2017-07-20T07:47:22.908Z,21.68
2017-07-20T07:48:22.905Z,21.83
2017-07-20T07:49:22.614Z,21.83
2017-07-20T07:50:22.564Z,21.79
2017-07-20T07:51:22.564Z,21.64
2017-07-20T07:52:22.841Z,21.59
2017-07-20T07:53:22.845Z,21.68
2017-07-20T07:54:22.845Z,21.79
2017-07-20T07:55:22.826Z,21.66
2017-07-20T07:56:22.797Z,21.59
2017-07-20T07:57:22.474Z,21.81
2017-07-20T07:58:22.765Z,21.81
2017-07-20T07:59:22.452Z,21.74
2017-07-20T08:00:22.735Z,21.86
2017-07-20T08:01:22.725Z,21.88
2017-07-20T08:02:22.416Z,21.86
2017-07-20T08:03:22.719Z,21.8
2017-07-20T08:04:22.684Z,21.56
2017-07-20T08:05:22.374Z,21.71
2017-07-20T08:06:22.684Z,21.77
2017-07-20T08:07:22.421Z,21.79
2017-07-20T08:08:22.628Z,21.81
2017-07-20T08:09:22.635Z,21.9
2017-07-20T08:10:22.637Z,21.86
2017-07-20T08:11:22.614Z,21.93
2017-07-20T08:12:22.586Z,21.96
2017-07-20T08:13:22.583Z,21.79
2017-07-20T08:14:22.559Z,21.88
2017-07-20T08:15:22.560Z,21.84
2017-07-20T08:16:22.536Z,21.9
2017-07-20T08:17:22.538Z,21.79
2017-07-20T08:18:22.515Z,21.71
2017-07-20T08:19:22.513Z,21.76
2017-07-20T08:20:22.504Z,21.81
2017-07-20T08:21:22.647Z,21.74
2017-07-20T08:22:22.476Z,21.74
2017-07-20T08:23:22.444Z,21.73
2017-07-20T08:24:22.502Z,21.83
2017-07-20T08:25:22.427Z,21.95
2017-07-20T08:26:22.107Z,22.02
2017-07-20T08:27:22.504Z,22.06
2017-07-20T08:28:22.080Z,22.14
2017-07-20T08:29:22.385Z,22.06
2017-07-20T08:30:21.750Z,22.11
2017-07-20T08:31:22.074Z,22.1
2017-07-20T08:32:22.338Z,22.03
2017-07-20T08:33:22.358Z,22.05
2017-07-20T08:34:22.426Z,22.12
2017-07-20T08:35:22.397Z,22.12
2017-07-20T08:36:22.295Z,22.12
2017-07-20T08:37:21.973Z,22.15
2017-07-20T08:38:21.665Z,22.18
2017-07-20T08:39:22.271Z,22.15
2017-07-20T08:40:22.287Z,22.21
2017-07-20T08:41:21.919Z,22.24
2017-07-20T08:42:21.917Z,22.33
2017-07-20T08:43:22.203Z,22.36
2017-07-20T08:44:22.285Z,22.33
2017-07-20T08:45:21.874Z,22.4
2017-07-20T08:46:22.226Z,22.36
2017-07-20T08:47:22.157Z,22.25
2017-07-20T08:48:22.177Z,22.18
2017-07-20T08:49:21.864Z,22.36
2017-07-20T08:50:21.827Z,22.39
2017-07-20T08:51:21.798Z,22.39
2017-07-20T08:52:21.797Z,22.15
2017-07-20T08:53:21.766Z,22.14
2017-07-20T08:54:22.094Z,22.11
2017-07-20T08:55:21.745Z,22.17
2017-07-20T08:56:22.052Z,22.21
2017-07-20T08:57:22.033Z,22.22
2017-07-20T08:58:21.704Z,22.27
2017-07-20T08:59:22.025Z,22.33
2017-07-20T09:00:21.703Z,22.39
2017-07-20T09:01:21.685Z,22.27
2017-07-20T09:02:21.683Z,22.35
2017-07-20T09:03:21.958Z,22.37
2017-07-20T09:04:21.638Z,22.42
2017-07-20T09:05:21.942Z,22.36
2017-07-20T09:06:21.604Z,22.37
2017-07-20T09:07:21.912Z,22.45
2017-07-20T09:08:21.893Z,22.4
2017-07-20T09:09:21.595Z,22.47
2017-07-20T09:10:21.885Z,22.42
2017-07-20T09:11:21.866Z,22.33
2017-07-20T09:12:21.841Z,22.33
2017-07-20T09:13:21.857Z,22.35
2017-07-20T09:14:21.839Z,22.35
2017-07-20T09:15:21.824Z,22.37
2017-07-20T09:16:21.798Z,22.39
2017-07-20T09:17:21.491Z,22.3
2017-07-20T09:18:21.784Z,22.32
2017-07-20T09:19:21.479Z,22.4
2017-07-20T09:20:21.449Z,22.4
2017-07-20T09:21:21.742Z,22.51
2017-07-20T09:22:21.724Z,22.59
2017-07-20T09:23:21.715Z,22.54
2017-07-20T09:24:21.727Z,22.54
2017-07-20T09:25:21.705Z,22.69
2017-07-20T09:26:21.688Z,22.79
2017-07-20T09:27:21.677Z,22.92
2017-07-20T09:28:21.665Z,22.94
2017-07-20T09:29:21.647Z,22.88
2017-07-20T09:30:21.663Z,22.85
2017-07-20T09:31:21.626Z,22.84
2017-07-20T09:32:21.634Z,22.85
2017-07-20T09:33:21.618Z,22.65
2017-07-20T09:34:21.598Z,22.7
2017-07-20T09:35:21.587Z,22.7
2017-07-20T09:36:21.266Z,22.74
2017-07-20T09:37:21.568Z,22.82
2017-07-20T09:38:21.528Z,22.92
2017-07-20T09:39:21.525Z,22.95
2017-07-20T09:40:21.215Z,22.97
2017-07-20T09:41:21.514Z,23.12
2017-07-20T09:42:21.496Z,23.21
2017-07-20T09:43:21.495Z,23.27
2017-07-20T09:44:21.498Z,23.42
2017-07-20T09:45:21.519Z,23.62
2017-07-20T09:46:21.140Z,23.84
2017-07-20T09:47:21.476Z,23.63
2017-07-20T09:48:21.422Z,23.75
2017-07-20T09:49:21.517Z,23.7
2017-07-20T09:50:21.395Z,23.52
2017-07-20T09:51:21.084Z,23.63
2017-07-20T09:52:21.076Z,23.67
2017-07-20T09:53:21.164Z,23.72
2017-07-20T09:54:21.047Z,24.02
2017-07-20T09:55:21.341Z,24.22
2017-07-20T09:56:21.047Z,24.39
2017-07-20T09:57:21.045Z,24.32
2017-07-20T09:58:21.365Z,24.33
2017-07-20T09:59:21.358Z,24.44
2017-07-20T10:00:21.001Z,24.52
2017-07-20T10:01:20.984Z,24.33
2017-07-20T10:02:21.285Z,24.33
2017-07-20T10:03:20.966Z,24.42
2017-07-20T10:04:21.264Z,24.75
2017-07-20T10:05:20.945Z,24.92
2017-07-20T10:06:21.255Z,25.12
2017-07-20T10:07:21.226Z,25.07
2017-07-20T10:08:21.224Z,25.05
2017-07-20T10:09:21.225Z,25.14
2017-07-20T10:10:21.209Z,25.37
2017-07-20T10:11:21.207Z,25.55
2017-07-20T10:12:21.205Z,25.74
2017-07-20T10:13:20.883Z,25.64
2017-07-20T10:14:21.179Z,25.42
2017-07-20T10:15:21.166Z,25.49
2017-07-20T10:16:21.154Z,25.56
2017-07-20T10:17:21.151Z,25.58
2017-07-20T10:18:21.174Z,25.44
2017-07-20T10:19:20.515Z,25.51
2017-07-20T10:20:21.120Z,25.42
2017-07-20T10:21:21.120Z,25.37
2017-07-20T10:22:21.105Z,25.17
2017-07-20T10:23:21.094Z,25.21
2017-07-20T10:24:21.084Z,25.12
2017-07-20T10:25:21.084Z,25.12
2017-07-20T10:26:21.082Z,25.03
2017-07-20T10:27:21.075Z,24.84
2017-07-20T10:28:20.457Z,24.96
2017-07-20T10:29:21.076Z,24.9
2017-07-20T10:30:21.028Z,24.96
2017-07-20T10:31:21.034Z,24.9
2017-07-20T10:32:21.013Z,25.07
2017-07-20T10:33:21.093Z,25
2017-07-20T10:34:21.074Z,25.32
2017-07-20T10:35:21.057Z,25.36
2017-07-20T10:36:20.983Z,25.49
2017-07-20T10:37:20.343Z,25.58
2017-07-20T10:38:20.663Z,25.69
2017-07-20T10:39:21.013Z,25.76
2017-07-20T10:40:20.995Z,25.63
2017-07-20T10:41:20.935Z,25.67
2017-07-20T10:42:20.923Z,25.71
2017-07-20T10:43:20.922Z,25.82
2017-07-20T10:44:20.904Z,25.44
2017-07-20T10:45:20.903Z,25.48
2017-07-20T10:46:20.896Z,25.54
2017-07-20T10:47:20.596Z,25.7
2017-07-20T10:48:20.564Z,25.42
2017-07-20T10:49:20.625Z,25.55
2017-07-20T10:50:20.886Z,25.54
2017-07-20T10:51:20.863Z,25.54
2017-07-20T10:52:20.852Z,25.54
2017-07-20T10:53:20.836Z,25.67
2017-07-20T10:54:20.823Z,25.7
2017-07-20T10:55:20.810Z,25.85
2017-07-20T10:56:20.812Z,25.85
2017-07-20T10:57:20.793Z,26
2017-07-20T10:58:20.776Z,26.23
2017-07-20T10:59:20.769Z,26.47
2017-07-20T11:00:20.463Z,26.66
2017-07-20T11:01:20.774Z,26.82
2017-07-20T11:02:20.507Z,26.56
2017-07-20T11:03:20.426Z,26.63
2017-07-20T11:04:20.731Z,26.64
2017-07-20T11:05:20.713Z,26.41
2017-07-20T11:06:20.736Z,26.49
2017-07-20T11:07:20.692Z,26.42
2017-07-20T11:08:20.406Z,26.41
2017-07-20T11:09:20.698Z,26.42
2017-07-20T11:10:20.724Z,26.37
2017-07-20T11:11:20.713Z,26.03
2017-07-20T11:12:20.743Z,25.74
2017-07-20T11:13:20.657Z,25.7
2017-07-20T11:14:20.670Z,25.51
2017-07-20T11:15:20.664Z,25.47
2017-07-20T11:16:20.338Z,25.7
2017-07-20T11:17:20.636Z,25.77
2017-07-20T11:18:20.674Z,25.76
2017-07-20T11:19:20.658Z,25.85
2017-07-20T11:20:20.275Z,25.94
2017-07-20T11:21:20.278Z,25.99
2017-07-20T11:22:20.627Z,25.81
2017-07-20T11:23:20.573Z,25.79
2017-07-20T11:24:20.588Z,25.77
2017-07-20T11:25:20.601Z,25.56
2017-07-20T11:26:20.568Z,25.7
2017-07-20T11:27:20.583Z,25.76
2017-07-20T11:28:20.258Z,25.67
2017-07-20T11:29:20.581Z,25.71
2017-07-20T11:30:20.530Z,25.62
2017-07-20T11:31:20.514Z,25.45
2017-07-20T11:32:20.513Z,25.3
2017-07-20T11:33:20.475Z,25.22
2017-07-20T11:34:20.470Z,25.14
2017-07-20T11:35:20.451Z,25.05
2017-07-20T11:36:20.440Z,25.07
2017-07-20T11:37:20.436Z,24.99
2017-07-20T11:38:20.435Z,24.92
2017-07-20T11:39:20.415Z,24.89
2017-07-20T11:40:20.117Z,24.82
2017-07-20T11:41:20.075Z,24.84
2017-07-20T11:42:20.378Z,24.9
2017-07-20T11:43:20.372Z,25
2017-07-20T11:44:20.364Z,25.07
2017-07-20T11:45:20.379Z,25.11
2017-07-20T11:46:20.344Z,25.02
2017-07-20T11:47:20.355Z,24.99
2017-07-20T11:48:20.310Z,25.07
2017-07-20T11:49:19.694Z,25
2017-07-20T11:50:20.296Z,25.15
2017-07-20T11:51:20.305Z,25.34
2017-07-20T11:52:20.276Z,25.27
2017-07-20T11:53:20.310Z,25.45
2017-07-20T11:54:20.274Z,25.39
2017-07-20T11:55:20.256Z,25.51
2017-07-20T11:56:20.246Z,25.67
2017-07-20T11:57:20.247Z,25.85
2017-07-20T11:58:20.252Z,25.79
2017-07-20T11:59:20.277Z,26
2017-07-20T12:00:20.222Z,26.32
2017-07-20T12:01:20.204Z,26.48
2017-07-20T12:02:20.211Z,26.66
2017-07-20T12:03:20.176Z,26.57
2017-07-20T12:04:19.864Z,26.33
2017-07-20T12:05:20.172Z,26.33
2017-07-20T12:06:20.162Z,26.24
2017-07-20T12:07:20.163Z,26
2017-07-20T12:08:20.233Z,25.89
2017-07-20T12:09:19.837Z,25.95
2017-07-20T12:10:19.913Z,25.94
2017-07-20T12:11:20.115Z,26
2017-07-20T12:12:19.794Z,25.86
2017-07-20T12:13:20.086Z,25.82
2017-07-20T12:14:20.193Z,25.81
2017-07-20T12:15:20.074Z,25.88
2017-07-20T12:16:20.093Z,25.77
2017-07-20T12:17:20.063Z,25.88
2017-07-20T12:18:20.045Z,25.95
2017-07-20T12:19:19.733Z,26.17
2017-07-20T12:20:19.713Z,26.39
2017-07-20T12:21:20.020Z,26.44
2017-07-20T12:22:19.713Z,26.64
2017-07-20T12:23:19.680Z,26.88
2017-07-20T12:24:19.994Z,26.88
2017-07-20T12:25:19.973Z,26.84
2017-07-20T12:26:19.982Z,26.79
2017-07-20T12:27:19.656Z,26.86
2017-07-20T12:28:19.982Z,27.19
2017-07-20T12:29:19.645Z,27.15
2017-07-20T12:30:19.956Z,27.07
2017-07-20T12:31:19.633Z,27.06
2017-07-20T12:32:19.946Z,27
2017-07-20T12:33:19.933Z,26.79
2017-07-20T12:34:19.915Z,26.98
2017-07-20T12:35:19.585Z,27.01
2017-07-20T12:36:19.894Z,27.21
2017-07-20T12:37:19.568Z,27.28
2017-07-20T12:38:19.877Z,27.34
2017-07-20T12:39:19.864Z,27.04
2017-07-20T12:40:19.547Z,27.22
2017-07-20T12:41:19.522Z,27.21
2017-07-20T12:42:19.836Z,27.4
2017-07-20T12:43:19.837Z,27.43
2017-07-20T12:44:19.815Z,27.33
2017-07-20T12:45:19.817Z,27.41
2017-07-20T12:46:19.793Z,27.71
2017-07-20T12:47:19.544Z,27.75
2017-07-20T12:48:19.813Z,27.81
2017-07-20T12:49:19.473Z,27.9
2017-07-20T12:50:19.776Z,27.87
2017-07-20T12:51:19.896Z,27.74
2017-07-20T12:52:19.745Z,27.49
2017-07-20T12:53:19.150Z,27.69
2017-07-20T12:54:19.429Z,27.74
2017-07-20T12:55:19.467Z,27.79
2017-07-20T12:56:19.411Z,27.79